You are not logged in, Click here to log in
ICAO: SBLO Country: Londrina
Latitude: -23.3336 Longitude: -51.1301
Total Arrivals: 1 Total Departures: 1
Latest Arrival: AD57982 (SBRJ-SBLO)Stone. Chang Latest Departure: AD24252 (SBLO-SBGL)Stone. Chang
Scenery:
METAR : SBLO 210700Z 13005KT CAVOK 14/12 Q1022

Governador José Richa Airport